sensor_id;sensor_type;location;lat;lon;timestamp;pressure;altitude;pressure_sealevel;temperature;humidity
31357;BME280;60001;48.404;11.738;2023-04-07T00:00:02;96315.97;;;3.43;58.38
31357;BME280;60001;48.404;11.738;2023-04-07T00:01:36;96310.75;;;3.43;58.91
31357;BME280;60001;48.404;11.738;2023-04-07T00:03:08;96316.78;;;3.43;59.22
31357;BME280;60001;48.404;11.738;2023-04-07T00:04:39;96318.78;;;3.41;58.98
31357;BME280;60001;48.404;11.738;2023-04-07T00:06:10;96325.00;;;3.40;59.23
31357;BME280;60001;48.404;11.738;2023-04-07T00:07:42;96309.56;;;3.39;58.82
31357;BME280;60001;48.404;11.738;2023-04-07T00:09:14;96313.59;;;3.35;58.62
31357;BME280;60001;48.404;11.738;2023-04-07T00:10:46;96305.94;;;3.33;59.32
31357;BME280;60001;48.404;11.738;2023-04-07T00:12:17;96309.56;;;3.32;58.82
31357;BME280;60001;48.404;11.738;2023-04-07T00:13:50;96312.78;;;3.34;58.68
31357;BME280;60001;48.404;11.738;2023-04-07T00:15:21;96307.97;;;3.31;59.26
31357;BME280;60001;48.404;11.738;2023-04-07T00:16:54;96305.16;;;3.33;58.53
31357;BME280;60001;48.404;11.738;2023-04-07T00:18:26;96299.34;;;3.30;59.08
31357;BME280;60001;48.404;11.738;2023-04-07T00:19:58;96296.72;;;3.30;58.54
31357;BME280;60001;48.404;11.738;2023-04-07T00:21:30;96299.56;;;3.29;58.47
31357;BME280;60001;48.404;11.738;2023-04-07T00:23:01;96299.75;;;3.34;58.57
31357;BME280;60001;48.404;11.738;2023-04-07T00:24:33;96291.09;;;3.34;58.96
31357;BME280;60001;48.404;11.738;2023-04-07T00:26:05;96303.16;;;3.35;59.04
31357;BME280;60001;48.404;11.738;2023-04-07T00:27:37;96290.91;;;3.35;59.06
31357;BME280;60001;48.404;11.738;2023-04-07T00:29:09;96284.88;;;3.35;58.49
31357;BME280;60001;48.404;11.738;2023-04-07T00:30:40;96289.09;;;3.36;59.24
31357;BME280;60001;48.404;11.738;2023-04-07T00:32:13;96298.91;;;3.40;58.45
31357;BME280;60001;48.404;11.738;2023-04-07T00:33:45;96295.88;;;3.43;58.77
31357;BME280;60001;48.404;11.738;2023-04-07T00:35:18;96299.50;;;3.42;58.93
31357;BME280;60001;48.404;11.738;2023-04-07T00:36:50;96287.88;;;3.38;58.09
31357;BME280;60001;48.404;11.738;2023-04-07T00:38:23;96290.13;;;3.28;58.86
31357;BME280;60001;48.404;11.738;2023-04-07T00:39:55;96296.75;;;3.24;58.80
31357;BME280;60001;48.404;11.738;2023-04-07T00:41:28;96278.53;;;3.04;59.52
31357;BME280;60001;48.404;11.738;2023-04-07T00:43:00;96296.38;;;3.14;59.45
31357;BME280;60001;48.404;11.738;2023-04-07T00:44:32;96289.75;;;3.11;60.04
31357;BME280;60001;48.404;11.738;2023-04-07T00:46:03;96287.56;;;3.08;60.24
31357;BME280;60001;48.404;11.738;2023-04-07T00:47:36;96291.78;;;3.09;60.78
31357;BME280;60001;48.404;11.738;2023-04-07T00:49:08;96289.16;;;3.16;60.27
31357;BME280;60001;48.404;11.738;2023-04-07T00:50:39;96291.34;;;3.19;60.55
31357;BME280;60001;48.404;11.738;2023-04-07T00:52:11;96286.91;;;3.19;60.06
31357;BME280;60001;48.404;11.738;2023-04-07T00:53:42;96281.69;;;3.19;60.72
31357;BME280;60001;48.404;11.738;2023-04-07T00:55:13;96281.69;;;3.19;60.55
31357;BME280;60001;48.404;11.738;2023-04-07T00:56:45;96281.53;;;3.21;60.79
31357;BME280;60001;48.404;11.738;2023-04-07T00:58:17;96275.69;;;3.19;60.94
31357;BME280;60001;48.404;11.738;2023-04-07T00:59:50;96274.50;;;3.21;60.72
31357;BME280;60001;48.404;11.738;2023-04-07T01:01:26;96271.47;;;3.24;60.67
31357;BME280;60001;48.404;11.738;2023-04-07T01:03:08;96272.03;;;3.26;60.42
31357;BME280;60001;48.404;11.738;2023-04-07T01:04:48;96275.06;;;3.30;60.30
31357;BME280;60001;48.404;11.738;2023-04-07T01:06:25;96272.44;;;3.30;60.19
31357;BME280;60001;48.404;11.738;2023-04-07T01:08:07;96274.44;;;3.35;60.34
31357;BME280;60001;48.404;11.738;2023-04-07T01:09:46;96275.25;;;3.35;60.75
31357;BME280;60001;48.404;11.738;2023-04-07T01:11:23;96265.59;;;3.36;61.23
31357;BME280;60001;48.404;11.738;2023-04-07T01:13:02;96269.00;;;3.36;60.41
31357;BME280;60001;48.404;11.738;2023-04-07T01:14:43;96271.63;;;3.36;61.25
31357;BME280;60001;48.404;11.738;2023-04-07T01:16:26;96269.81;;;3.37;61.25
31357;BME280;60001;48.404;11.738;2023-04-07T01:18:05;96270.03;;;3.35;60.82
31357;BME280;60001;48.404;11.738;2023-04-07T01:19:42;96260.38;;;3.36;61.26
31357;BME280;60001;48.404;11.738;2023-04-07T01:21:18;96268.59;;;3.39;61.83
31357;BME280;60001;48.404;11.738;2023-04-07T01:22:55;96266.38;;;3.43;61.06
31357;BME280;60001;48.404;11.738;2023-04-07T01:25:05;96263.78;;;3.43;60.60
31357;BME280;60001;48.404;11.738;2023-04-07T01:26:42;96259.34;;;3.43;61.57
31357;BME280;60001;48.404;11.738;2023-04-07T01:30:17;96262.50;;;3.52;61.55
31357;BME280;60001;48.404;11.738;2023-04-07T01:31:50;96264.72;;;3.55;61.47
31357;BME280;60001;48.404;11.738;2023-04-07T01:33:22;96263.91;;;3.54;61.01
31357;BME280;60001;48.404;11.738;2023-04-07T01:34:56;96265.09;;;3.58;61.40
31357;BME280;60001;48.404;11.738;2023-04-07T01:36:31;96262.91;;;3.55;61.25
31357;BME280;60001;48.404;11.738;2023-04-07T01:38:04;96260.69;;;3.52;61.17
31357;BME280;60001;48.404;11.738;2023-04-07T01:39:38;96263.72;;;3.56;61.21
31357;BME280;60001;48.404;11.738;2023-04-07T01:41:10;96254.47;;;3.53;61.89
31357;BME280;60001;48.404;11.738;2023-04-07T01:42:48;96262.69;;;3.57;61.19
31357;BME280;60001;48.404;11.738;2023-04-07T01:44:22;96262.13;;;3.55;61.23
31357;BME280;60001;48.404;11.738;2023-04-07T01:45:56;96256.28;;;3.53;61.43
31357;BME280;60001;48.404;11.738;2023-04-07T01:47:30;96255.13;;;3.49;61.39
31357;BME280;60001;48.404;11.738;2023-04-07T01:49:04;96262.16;;;3.48;60.88
31357;BME280;60001;48.404;11.738;2023-04-07T01:50:37;96261.13;;;3.49;61.15
31357;BME280;60001;48.404;11.738;2023-04-07T01:52:09;96255.50;;;3.46;61.43
31357;BME280;60001;48.404;11.738;2023-04-07T01:53:41;96267.75;;;3.45;61.43
31357;BME280;60001;48.404;11.738;2023-04-07T01:55:12;96259.34;;;3.43;61.63
31357;BME280;60001;48.404;11.738;2023-04-07T01:56:44;96256.16;;;3.41;61.15
31357;BME280;60001;48.404;11.738;2023-04-07T01:58:18;96255.53;;;3.39;61.22
31357;BME280;60001;48.404;11.738;2023-04-07T01:59:49;96254.94;;;3.37;60.46
31357;BME280;60001;48.404;11.738;2023-04-07T02:01:23;96254.56;;;3.34;61.19
31357;BME280;60001;48.404;11.738;2023-04-07T02:02:58;96242.72;;;3.31;60.45
31357;BME280;60001;48.404;11.738;2023-04-07T02:04:53;96248.16;;;3.29;60.78
31357;BME280;60001;48.404;11.738;2023-04-07T02:06:34;96255.41;;;3.27;60.85
31357;BME280;60001;48.404;11.738;2023-04-07T02:08:10;96249.38;;;3.27;60.99
31357;BME280;60001;48.404;11.738;2023-04-07T02:09:43;96249.78;;;3.24;61.22
31357;BME280;60001;48.404;11.738;2023-04-07T02:11:21;96239.94;;;3.26;60.99
31357;BME280;60001;48.404;11.738;2023-04-07T02:12:55;96250.38;;;3.26;61.54
31357;BME280;60001;48.404;11.738;2023-04-07T02:14:29;96241.16;;;3.23;61.63
31357;BME280;60001;48.404;11.738;2023-04-07T02:16:01;96245.38;;;3.24;61.14
31357;BME280;60001;48.404;11.738;2023-04-07T02:17:35;96248.56;;;3.20;61.43
31357;BME280;60001;48.404;11.738;2023-04-07T02:19:08;96251.81;;;3.22;61.57
31357;BME280;60001;48.404;11.738;2023-04-07T02:20:43;96243.97;;;3.22;61.81
31357;BME280;60001;48.404;11.738;2023-04-07T02:22:17;96224.16;;;3.08;61.30
31357;BME280;60001;48.404;11.738;2023-04-07T02:23:50;96249.41;;;3.20;61.54
31357;BME280;60001;48.404;11.738;2023-04-07T02:25:24;96247.38;;;3.22;61.74
31357;BME280;60001;48.404;11.738;2023-04-07T02:26:56;96239.56;;;3.22;61.07
31357;BME280;60001;48.404;11.738;2023-04-07T02:28:27;96245.00;;;3.21;61.81
31357;BME280;60001;48.404;11.738;2023-04-07T02:29:59;96236.53;;;3.19;61.48
31357;BME280;60001;48.404;11.738;2023-04-07T02:31:31;96242.56;;;3.19;61.85
31357;BME280;60001;48.404;11.738;2023-04-07T02:33:03;96240.59;;;3.15;61.81
31357;BME280;60001;48.404;11.738;2023-04-07T02:34:35;96245.19;;;3.13;61.71
31357;BME280;60001;48.404;11.738;2023-04-07T02:36:07;96239.38;;;3.11;61.53
31357;BME280;60001;48.404;11.738;2023-04-07T02:37:38;96239.81;;;3.08;61.33
31357;BME280;60001;48.404;11.738;2023-04-07T02:39:10;96230.19;;;3.01;61.30
31357;BME280;60001;48.404;11.738;2023-04-07T02:40:42;96235.19;;;3.03;61.54
31357;BME280;60001;48.404;11.738;2023-04-07T02:42:13;96242.66;;;2.99;62.47
31357;BME280;60001;48.404;11.738;2023-04-07T02:43:45;96230.22;;;2.95;61.94
31357;BME280;60001;48.404;11.738;2023-04-07T02:45:20;96230.81;;;2.97;62.63
31357;BME280;60001;48.404;11.738;2023-04-07T02:46:52;96236.00;;;2.97;62.98
31357;BME280;60001;48.404;11.738;2023-04-07T02:48:25;96231.81;;;2.96;62.48
31357;BME280;60001;48.404;11.738;2023-04-07T02:49:58;96239.03;;;2.94;62.22
31357;BME280;60001;48.404;11.738;2023-04-07T02:51:30;96238.25;;;2.93;62.85
31357;BME280;60001;48.404;11.738;2023-04-07T02:53:02;96230.44;;;2.93;63.23
31357;BME280;60001;48.404;11.738;2023-04-07T02:54:33;96237.25;;;2.94;62.81
31357;BME280;60001;48.404;11.738;2023-04-07T02:56:04;96234.84;;;2.93;62.93
31357;BME280;60001;48.404;11.738;2023-04-07T02:57:36;96228.22;;;2.90;63.30
31357;BME280;60001;48.404;11.738;2023-04-07T02:59:08;96235.81;;;2.92;62.77
31357;BME280;60001;48.404;11.738;2023-04-07T03:00:40;96239.25;;;2.92;63.48
31357;BME280;60001;48.404;11.738;2023-04-07T03:02:10;96235.81;;;2.92;63.07
31357;BME280;60001;48.404;11.738;2023-04-07T03:03:44;96231.00;;;2.95;63.03
31357;BME280;60001;48.404;11.738;2023-04-07T03:05:17;96230.59;;;2.98;63.30
31357;BME280;60001;48.404;11.738;2023-04-07T03:06:49;96227.59;;;3.01;63.19
31357;BME280;60001;48.404;11.738;2023-04-07T03:08:21;96232.59;;;3.03;63.49
31357;BME280;60001;48.404;11.738;2023-04-07T03:09:53;96224.75;;;3.03;62.75
31357;BME280;60001;48.404;11.738;2023-04-07T03:11:23;96222.97;;;3.03;62.94
31357;BME280;60001;48.404;11.738;2023-04-07T03:12:55;96208.94;;;2.98;62.98
31357;BME280;60001;48.404;11.738;2023-04-07T03:14:27;96219.56;;;3.03;63.01
31357;BME280;60001;48.404;11.738;2023-04-07T03:15:59;96223.97;;;3.02;62.66
31357;BME280;60001;48.404;11.738;2023-04-07T03:17:32;96216.13;;;3.02;62.76
31357;BME280;60001;48.404;11.738;2023-04-07T03:19:05;96210.72;;;2.97;62.68
31357;BME280;60001;48.404;11.738;2023-04-07T03:20:38;96218.34;;;2.99;63.52
31357;BME280;60001;48.404;11.738;2023-04-07T03:22:11;96219.34;;;2.98;63.38
31357;BME280;60001;48.404;11.738;2023-04-07T03:23:43;96217.53;;;2.98;62.78
31357;BME280;60001;48.404;11.738;2023-04-07T03:25:14;96220.16;;;2.98;63.02
31357;BME280;60001;48.404;11.738;2023-04-07T03:26:45;96222.97;;;2.97;63.56
31357;BME280;60001;48.404;11.738;2023-04-07T03:28:17;96212.16;;;2.93;63.27
31357;BME280;60001;48.404;11.738;2023-04-07T03:29:49;96211.75;;;2.96;63.26
31357;BME280;60001;48.404;11.738;2023-04-07T03:31:21;96213.56;;;2.96;63.37
31357;BME280;60001;48.404;11.738;2023-04-07T03:32:53;96219.78;;;2.95;62.81
31357;BME280;60001;48.404;11.738;2023-04-07T03:34:26;96218.97;;;2.94;62.97
31357;BME280;60001;48.404;11.738;2023-04-07T03:35:58;96225.38;;;2.92;62.92
31357;BME280;60001;48.404;11.738;2023-04-07T03:37:30;96218.41;;;2.92;63.62
31357;BME280;60001;48.404;11.738;2023-04-07T03:39:02;96214.97;;;2.92;63.52
31357;BME280;60001;48.404;11.738;2023-04-07T03:40:33;96214.97;;;2.92;63.65
31357;BME280;60001;48.404;11.738;2023-04-07T03:42:05;96211.38;;;2.93;63.19
31357;BME280;60001;48.404;11.738;2023-04-07T03:43:36;96208.75;;;2.93;63.52
31357;BME280;60001;48.404;11.738;2023-04-07T03:45:08;96209.16;;;2.90;63.27
31357;BME280;60001;48.404;11.738;2023-04-07T03:46:39;96215.78;;;2.92;63.52
31357;BME280;60001;48.404;11.738;2023-04-07T03:48:11;96207.75;;;2.94;63.37
31357;BME280;60001;48.404;11.738;2023-04-07T03:49:43;96210.56;;;2.92;63.17
31357;BME280;60001;48.404;11.738;2023-04-07T03:51:15;96213.19;;;2.92;63.01
31357;BME280;60001;48.404;11.738;2023-04-07T03:52:46;96206.53;;;2.96;63.54
31357;BME280;60001;48.404;11.738;2023-04-07T03:54:18;96212.53;;;2.97;63.56
31357;BME280;60001;48.404;11.738;2023-04-07T03:55:50;96212.53;;;2.97;63.16
31357;BME280;60001;48.404;11.738;2023-04-07T03:57:21;96211.97;;;2.95;63.59
31357;BME280;60001;48.404;11.738;2023-04-07T03:58:53;96213.75;;;2.94;64.04
31357;BME280;60001;48.404;11.738;2023-04-07T04:00:25;96212.16;;;2.93;64.25
31357;BME280;60001;48.404;11.738;2023-04-07T04:01:57;96203.72;;;2.91;63.82
31357;BME280;60001;48.404;11.738;2023-04-07T04:03:29;96209.94;;;2.90;64.34
31357;BME280;60001;48.404;11.738;2023-04-07T04:05:02;96205.75;;;2.89;64.65
31357;BME280;60001;48.404;11.738;2023-04-07T04:06:34;96211.75;;;2.90;64.28
31357;BME280;60001;48.404;11.738;2023-04-07T04:08:06;96200.97;;;2.86;64.24
31357;BME280;60001;48.404;11.738;2023-04-07T04:09:37;96211.56;;;2.91;63.96
31357;BME280;60001;48.404;11.738;2023-04-07T04:11:09;96205.94;;;2.94;64.40
31357;BME280;60001;48.404;11.738;2023-04-07T04:12:40;96203.91;;;2.96;64.61
31357;BME280;60001;48.404;11.738;2023-04-07T04:14:12;96209.94;;;2.97;64.46
31357;BME280;60001;48.404;11.738;2023-04-07T04:15:44;96206.13;;;2.99;64.32
31357;BME280;60001;48.404;11.738;2023-04-07T04:17:16;96205.13;;;3.00;64.67
31357;BME280;60001;48.404;11.738;2023-04-07T04:18:46;96210.34;;;3.00;63.93
31357;BME280;60001;48.404;11.738;2023-04-07T04:20:20;96203.31;;;3.01;64.68
31357;BME280;60001;48.404;11.738;2023-04-07T04:21:51;96205.13;;;3.00;64.39
31357;BME280;60001;48.404;11.738;2023-04-07T04:23:23;96197.47;;;2.99;64.14
31357;BME280;60001;48.404;11.738;2023-04-07T04:24:55;96206.13;;;2.99;64.83
31357;BME280;60001;48.404;11.738;2023-04-07T04:26:26;96200.09;;;2.99;64.46
31357;BME280;60001;48.404;11.738;2023-04-07T04:27:59;96204.31;;;3.00;64.38
31357;BME280;60001;48.404;11.738;2023-04-07T04:29:30;96206.72;;;3.01;64.78
31357;BME280;60001;48.404;11.738;2023-04-07T04:31:01;96199.28;;;2.98;64.38
31357;BME280;60001;48.404;11.738;2023-04-07T04:32:33;96196.88;;;3.03;64.70
31357;BME280;60001;48.404;11.738;2023-04-07T04:34:05;96204.47;;;3.05;65.23
31357;BME280;60001;48.404;11.738;2023-04-07T04:35:38;96199.88;;;3.07;64.69
31357;BME280;60001;48.404;11.738;2023-04-07T04:37:09;96201.28;;;3.10;64.31
31357;BME280;60001;48.404;11.738;2023-04-07T04:38:41;96200.03;;;3.12;64.55
31357;BME280;60001;48.404;11.738;2023-04-07T04:40:13;96200.66;;;3.14;65.39
31357;BME280;60001;48.404;11.738;2023-04-07T04:41:44;96201.25;;;3.16;65.13
31357;BME280;60001;48.404;11.738;2023-04-07T04:43:16;96203.44;;;3.19;65.37
31357;BME280;60001;48.404;11.738;2023-04-07T04:44:46;96199.84;;;3.20;66.01
31357;BME280;60001;48.404;11.738;2023-04-07T04:46:18;96198.41;;;3.24;65.59
31357;BME280;60001;48.404;11.738;2023-04-07T04:47:50;96198.78;;;3.28;65.57
31357;BME280;60001;48.404;11.738;2023-04-07T04:49:21;96196.34;;;3.33;65.86
31357;BME280;60001;48.404;11.738;2023-04-07T04:50:54;96203.13;;;3.41;65.94
31357;BME280;60001;48.404;11.738;2023-04-07T04:52:26;96198.09;;;3.46;66.13
31357;BME280;60001;48.404;11.738;2023-04-07T04:53:58;96202.47;;;3.52;66.86
31357;BME280;60001;48.404;11.738;2023-04-07T04:55:29;96199.03;;;3.58;66.08
31357;BME280;60001;48.404;11.738;2023-04-07T04:57:01;96201.59;;;3.65;66.33
31357;BME280;60001;48.404;11.738;2023-04-07T04:58:33;96201.56;;;3.71;66.41
31357;BME280;60001;48.404;11.738;2023-04-07T05:00:06;96203.13;;;3.79;66.01
31357;BME280;60001;48.404;11.738;2023-04-07T05:01:38;96200.69;;;3.84;66.41
31357;BME280;60001;48.404;11.738;2023-04-07T05:03:10;96209.28;;;3.91;66.73
31357;BME280;60001;48.404;11.738;2023-04-07T05:04:43;96212.84;;;3.97;66.36
31357;BME280;60001;48.404;11.738;2023-04-07T05:06:17;96205.16;;;4.02;66.38
31357;BME280;60001;48.404;11.738;2023-04-07T05:07:49;96200.09;;;4.07;66.64
31357;BME280;60001;48.404;11.738;2023-04-07T05:09:21;96199.91;;;4.08;67.02
31357;BME280;60001;48.404;11.738;2023-04-07T05:10:52;96199.84;;;4.15;66.61
31357;BME280;60001;48.404;11.738;2023-04-07T05:12:24;96202.63;;;4.20;66.08
31357;BME280;60001;48.404;11.738;2023-04-07T05:13:56;96203.41;;;4.21;66.52
31357;BME280;60001;48.404;11.738;2023-04-07T05:15:27;96204.97;;;4.28;66.21
31357;BME280;60001;48.404;11.738;2023-04-07T05:16:59;96200.91;;;4.32;66.63
31357;BME280;60001;48.404;11.738;2023-04-07T05:18:30;96195.25;;;4.35;66.67
31357;BME280;60001;48.404;11.738;2023-04-07T05:20:03;96208.44;;;4.47;66.40
31357;BME280;60001;48.404;11.738;2023-04-07T05:21:36;96211.22;;;4.52;66.05
31357;BME280;60001;48.404;11.738;2023-04-07T05:23:07;96205.53;;;4.55;66.29
31357;BME280;60001;48.404;11.738;2023-04-07T05:24:39;96206.28;;;4.62;66.05
31357;BME280;60001;48.404;11.738;2023-04-07T05:26:10;96207.22;;;4.68;65.98
31357;BME280;60001;48.404;11.738;2023-04-07T05:27:42;96204.16;;;4.71;65.80
31357;BME280;60001;48.404;11.738;2023-04-07T05:29:14;96201.94;;;4.75;65.64
31357;BME280;60001;48.404;11.738;2023-04-07T05:30:47;96189.88;;;4.74;65.22
31357;BME280;60001;48.404;11.738;2023-04-07T05:32:19;96196.47;;;4.76;65.66
31357;BME280;60001;48.404;11.738;2023-04-07T05:33:50;96195.03;;;4.80;65.64
31357;BME280;60001;48.404;11.738;2023-04-07T05:35:22;96202.44;;;4.83;64.87
31357;BME280;60001;48.404;11.738;2023-04-07T05:36:56;96197.59;;;4.87;65.53
31357;BME280;60001;48.404;11.738;2023-04-07T05:38:28;96197.94;;;4.90;65.12
31357;BME280;60001;48.404;11.738;2023-04-07T05:40:00;96199.91;;;4.95;64.99
31357;BME280;60001;48.404;11.738;2023-04-07T05:41:32;96190.88;;;4.91;65.02
31357;BME280;60001;48.404;11.738;2023-04-07T05:43:03;96196.41;;;5.01;64.68
31357;BME280;60001;48.404;11.738;2023-04-07T05:44:35;96204.03;;;5.03;64.90
31357;BME280;60001;48.404;11.738;2023-04-07T05:46:07;96195.97;;;5.04;64.87
31357;BME280;60001;48.404;11.738;2023-04-07T05:47:39;96197.94;;;5.09;65.53
31357;BME280;60001;48.404;11.738;2023-04-07T05:49:10;96201.94;;;5.11;64.98
31357;BME280;60001;48.404;11.738;2023-04-07T05:50:42;96195.25;;;5.15;65.76
31357;BME280;60001;48.404;11.738;2023-04-07T05:52:15;96189.78;;;5.17;65.16
31357;BME280;60001;48.404;11.738;2023-04-07T05:53:48;96201.78;;;5.25;65.28
31357;BME280;60001;48.404;11.738;2023-04-07T05:55:19;96195.50;;;5.26;65.08
31357;BME280;60001;48.404;11.738;2023-04-07T05:56:51;96199.88;;;5.32;65.24
31357;BME280;60001;48.404;11.738;2023-04-07T05:58:23;96194.97;;;5.35;64.99
31357;BME280;60001;48.404;11.738;2023-04-07T05:59:55;96190.13;;;5.39;65.36
31357;BME280;60001;48.404;11.738;2023-04-07T06:01:27;96189.66;;;5.42;65.34
31357;BME280;60001;48.404;11.738;2023-04-07T06:02:58;96191.41;;;5.48;65.21
31357;BME280;60001;48.404;11.738;2023-04-07T06:04:31;96185.72;;;5.51;64.98
31357;BME280;60001;48.404;11.738;2023-04-07T06:06:05;96190.50;;;5.54;64.99
31357;BME280;60001;48.404;11.738;2023-04-07T06:07:38;96196.69;;;5.60;64.72
31357;BME280;60001;48.404;11.738;2023-04-07T06:09:10;96194.63;;;5.62;65.26
31357;BME280;60001;48.404;11.738;2023-04-07T06:10:41;96195.00;;;5.65;64.59
31357;BME280;60001;48.404;11.738;2023-04-07T06:12:13;96191.59;;;5.65;65.05
31357;BME280;60001;48.404;11.738;2023-04-07T06:13:46;96190.91;;;5.69;64.78
31357;BME280;60001;48.404;11.738;2023-04-07T06:15:18;96189.91;;;5.70;65.16
31357;BME280;60001;48.404;11.738;2023-04-07T06:16:50;96190.69;;;5.71;64.89
31357;BME280;60001;48.404;11.738;2023-04-07T06:18:21;96199.34;;;5.71;64.11
31357;BME280;60001;48.404;11.738;2023-04-07T06:19:53;96196.50;;;5.73;64.49
31357;BME280;60001;48.404;11.738;2023-04-07T06:21:25;96192.88;;;5.74;64.82
31357;BME280;60001;48.404;11.738;2023-04-07T06:22:58;96193.66;;;5.74;64.13
31357;BME280;60001;48.404;11.738;2023-04-07T06:24:30;96186.69;;;5.68;63.86
31357;BME280;60001;48.404;11.738;2023-04-07T06:26:02;96190.69;;;5.71;64.28
31357;BME280;60001;48.404;11.738;2023-04-07T06:27:33;96194.13;;;5.71;63.99
31357;BME280;60001;48.404;11.738;2023-04-07T06:29:04;96188.09;;;5.71;64.27
31357;BME280;60001;48.404;11.738;2023-04-07T06:30:36;96191.03;;;5.74;63.54
31357;BME280;60001;48.404;11.738;2023-04-07T06:32:08;96178.59;;;5.70;63.95
31357;BME280;60001;48.404;11.738;2023-04-07T06:33:40;96195.63;;;5.79;63.86
31357;BME280;60001;48.404;11.738;2023-04-07T06:35:12;96187.53;;;5.81;64.02
31357;BME280;60001;48.404;11.738;2023-04-07T06:36:43;96190.50;;;5.84;64.02
31357;BME280;60001;48.404;11.738;2023-04-07T06:38:20;96192.31;;;5.84;63.32
31357;BME280;60001;48.404;11.738;2023-04-07T06:39:52;96191.88;;;5.87;63.34
31357;BME280;60001;48.404;11.738;2023-04-07T06:41:23;96189.03;;;5.88;63.41
31357;BME280;60001;48.404;11.738;2023-04-07T06:42:55;96186.00;;;5.91;63.32
31357;BME280;60001;48.404;11.738;2023-04-07T06:44:27;96185.09;;;5.97;63.77
31357;BME280;60001;48.404;11.738;2023-04-07T06:45:59;96192.03;;;6.03;63.63
31357;BME280;60001;48.404;11.738;2023-04-07T06:47:31;96193.78;;;6.10;63.24
31357;BME280;60001;48.404;11.738;2023-04-07T06:49:03;96197.88;;;6.17;63.54
31357;BME280;60001;48.404;11.738;2023-04-07T06:50:34;96187.28;;;6.24;63.38
31357;BME280;60001;48.404;11.738;2023-04-07T06:52:06;96191.88;;;6.28;63.82
31357;BME280;60001;48.404;11.738;2023-04-07T06:53:40;96189.13;;;6.35;63.78
31357;BME280;60001;48.404;11.738;2023-04-07T06:55:13;96189.25;;;6.40;64.25
31357;BME280;60001;48.404;11.738;2023-04-07T06:56:45;96191.78;;;6.47;63.74
31357;BME280;60001;48.404;11.738;2023-04-07T06:58:17;96182.41;;;6.51;64.57
31357;BME280;60001;48.404;11.738;2023-04-07T06:59:48;96190.53;;;6.61;64.67
31357;BME280;60001;48.404;11.738;2023-04-07T07:01:20;96185.84;;;6.63;64.24
31357;BME280;60001;48.404;11.738;2023-04-07T07:02:52;96183.78;;;6.65;64.21
31357;BME280;60001;48.404;11.738;2023-04-07T07:04:24;96179.19;;;6.72;64.43
31357;BME280;60001;48.404;11.738;2023-04-07T07:05:56;96170.66;;;6.77;64.34
31357;BME280;60001;48.404;11.738;2023-04-07T07:07:28;96174.75;;;6.84;64.30
31357;BME280;60001;48.404;11.738;2023-04-07T07:09:01;96172.31;;;6.95;64.01
31357;BME280;60001;48.404;11.738;2023-04-07T07:10:33;96177.78;;;7.05;64.16
31357;BME280;60001;48.404;11.738;2023-04-07T07:12:06;96182.78;;;7.18;64.41
31357;BME280;60001;48.404;11.738;2023-04-07T07:13:37;96174.84;;;7.30;64.02
31357;BME280;60001;48.404;11.738;2023-04-07T07:15:09;96168.78;;;7.41;63.44
31357;BME280;60001;48.404;11.738;2023-04-07T07:16:41;96176.03;;;7.51;62.61
31357;BME280;60001;48.404;11.738;2023-04-07T07:18:13;96165.72;;;7.61;62.56
31357;BME280;60001;48.404;11.738;2023-04-07T07:19:45;96168.44;;;7.66;61.91
31357;BME280;60001;48.404;11.738;2023-04-07T07:21:17;96165.09;;;7.70;62.27
31357;BME280;60001;48.404;11.738;2023-04-07T07:22:49;96165.44;;;7.74;62.43
31357;BME280;60001;48.404;11.738;2023-04-07T07:24:22;96165.94;;;7.88;62.03
31357;BME280;60001;48.404;11.738;2023-04-07T07:25:54;96167.22;;;8.02;61.72
31357;BME280;60001;48.404;11.738;2023-04-07T07:27:26;96165.63;;;8.18;61.16
31357;BME280;60001;48.404;11.738;2023-04-07T07:28:58;96168.97;;;8.30;59.76
31357;BME280;60001;48.404;11.738;2023-04-07T07:30:29;96170.19;;;8.39;59.64
31357;BME280;60001;48.404;11.738;2023-04-07T07:32:01;96162.75;;;8.53;59.30
31357;BME280;60001;48.404;11.738;2023-04-07T07:33:33;96171.72;;;8.74;58.80
31357;BME280;60001;48.404;11.738;2023-04-07T07:35:05;96177.44;;;8.88;58.04
31357;BME280;60001;48.404;11.738;2023-04-07T07:36:37;96170.47;;;8.98;58.18
31357;BME280;60001;48.404;11.738;2023-04-07T07:38:09;96177.53;;;9.15;58.23
31357;BME280;60001;48.404;11.738;2023-04-07T07:39:42;96176.03;;;9.24;56.57
31357;BME280;60001;48.404;11.738;2023-04-07T07:41:14;96171.78;;;9.40;56.46
31357;BME280;60001;48.404;11.738;2023-04-07T07:42:47;96177.88;;;9.45;56.17
31357;BME280;60001;48.404;11.738;2023-04-07T07:44:18;96174.06;;;9.58;56.67
31357;BME280;60001;48.404;11.738;2023-04-07T07:45:52;96172.69;;;9.77;56.75
31357;BME280;60001;48.404;11.738;2023-04-07T07:47:24;96175.50;;;9.98;56.05
31357;BME280;60001;48.404;11.738;2023-04-07T07:48:59;96184.25;;;10.03;55.02
31357;BME280;60001;48.404;11.738;2023-04-07T07:50:30;96177.22;;;10.14;54.68
31357;BME280;60001;48.404;11.738;2023-04-07T07:52:02;96181.31;;;10.00;53.60
31357;BME280;60001;48.404;11.738;2023-04-07T07:53:34;96175.00;;;10.01;54.34
31357;BME280;60001;48.404;11.738;2023-04-07T07:55:08;96174.75;;;10.02;54.70
31357;BME280;60001;48.404;11.738;2023-04-07T07:56:40;96178.78;;;10.10;54.56
31357;BME280;60001;48.404;11.738;2023-04-07T07:58:11;96175.69;;;10.18;54.57
31357;BME280;60001;48.404;11.738;2023-04-07T07:59:43;96183.41;;;10.25;54.53
31357;BME280;60001;48.404;11.738;2023-04-07T08:01:16;96170.00;;;10.31;54.56
31357;BME280;60001;48.404;11.738;2023-04-07T08:02:48;96169.22;;;10.36;54.08
31357;BME280;60001;48.404;11.738;2023-04-07T08:04:19;96174.91;;;10.55;53.79
31357;BME280;60001;48.404;11.738;2023-04-07T08:05:52;96167.06;;;10.28;52.68
31357;BME280;60001;48.404;11.738;2023-04-07T08:07:25;96167.91;;;10.33;53.97
31357;BME280;60001;48.404;11.738;2023-04-07T08:08:57;96168.22;;;10.37;54.00
31357;BME280;60001;48.404;11.738;2023-04-07T08:10:30;96169.78;;;10.38;53.01
31357;BME280;60001;48.404;11.738;2023-04-07T08:12:02;96162.16;;;10.41;53.38